• Join FlightAware (Why Join?)
  • Login
  • US Flag 
05:03AM EDT


 

Airport Tracker/Info


-or-


 

Live Flight TrackerFlight Track Log ✈ N72WP ✈ 26-Jun-2013 ✈ KMWK - KPDK

Flight Track Log - Related Links

Times and Time Zones

All times are in EDT time to prevent confusion due to time zone crossing. See the N72WP flight status page for this flight to view local times or setup timezone preferences in your user account.

Time Position Orientation Groundspeed Altitude Reporting Facility
EDT Latitude Longitude Course Direction KTS MPH feet Rate Location/Type
11:28AM 36.3408 -80.6467 219° Southwest 113 130 5,000  Level Atlanta Center
11:29AM 36.3144 -80.6736 219° Southwest 113 130 5,900 900 Climbing Atlanta Center
11:30AM 36.2967 -80.7028 233° Southwest 113 130 6,800 900 Climbing Atlanta Center
11:31AM 36.2767 -80.7344 232° Southwest 113 130 7,700 900 Climbing Atlanta Center
11:32AM 36.2586 -80.7661 235° Southwest 118 136 8,700 900 Climbing Atlanta Center
11:33AM 36.2408 -80.7978 235° Southwest 113 130 9,600 600 Climbing Atlanta Center
11:34AM 36.2228 -80.8319 237° Southwest 108 124 10,000 180 Climbing Atlanta Center
11:35AM 36.1989 -80.8714 233° Southwest 131 151 10,000 60 Level Atlanta Center
11:36AM 36.1708 -80.9136 231° Southwest 155 178 10,200 660 Climbing Atlanta Center
11:37AM 36.1508 -80.9506 236° Southwest 146 168 11,400 900 Climbing Atlanta Center
11:38AM 36.1289 -80.9872 233° Southwest 135 155 12,000 300 Climbing Atlanta Center
11:39AM 36.1089 -81.0239 236° Southwest 135 155 12,000  Level Atlanta Center
11:40AM 36.0808 -81.0686 232° Southwest 154 177 12,000  Level Atlanta Center
11:41AM 36.0528 -81.1161 234° Southwest 172 198 12,000  Level Atlanta Center
11:42AM 36.0247 -81.1633 234° Southwest 172 198 12,000  Level Atlanta Center
11:43AM 35.9964 -81.2103 233° Southwest 172 198 12,000  Level Atlanta Center
11:44AM 35.9683 -81.2575 234° Southwest 177 204 12,000  Level Atlanta Center
11:45AM 35.9381 -81.3022 230° Southwest 177 204 12,000  Level Atlanta Center
11:46AM 35.9100 -81.3492 234° Southwest 177 204 12,000  Level Atlanta Center
11:47AM 35.8819 -81.4014 236° Southwest 177 204 12,000  Level Atlanta Center
11:48AM 35.8514 -81.4461 230° Southwest 177 204 12,000  Level Atlanta Center
11:49AM 35.8233 -81.4931 234° Southwest 177 204 12,000  Level Atlanta Center
11:50AM 35.7972 -81.5400 236° Southwest 177 204 12,000  Level Atlanta Center
11:51AM 35.7753 -81.5917 242° Southwest 172 198 12,000  Level Atlanta Center
11:52AM 35.7575 -81.6436 247° West 172 198 12,000  Level Atlanta Center
11:53AM 35.7397 -81.6978 248° West 172 198 12,000  Level Atlanta Center
11:54AM 35.7197 -81.7494 245° Southwest 172 198 12,000  Level Atlanta Center
11:55AM 35.7000 -81.7986 244° Southwest 172 198 12,000  Level Atlanta Center
11:56AM 35.6694 -81.8456 231° Southwest 172 198 12,000  Level Atlanta Center
11:57AM 35.6411 -81.8922 233° Southwest 172 198 12,000  Level Atlanta Center
11:58AM 35.6106 -81.9364 230° Southwest 172 198 12,100  Climbing Atlanta Center
11:59AM 35.5822 -81.9806 232° Southwest 172 198 12,100  Level Atlanta Center
12:00PM 35.5556 -82.0222 232° Southwest 172 198 12,100  Level Atlanta Center
12:01PM 35.5250 -82.0689 231° Southwest 177 204 12,100  Level Atlanta Center
12:02PM 35.4944 -82.1156 231° Southwest 177 204 12,100  Level Atlanta Center
12:03PM 35.4639 -82.1594 229° Southwest 177 204 12,100  Level Atlanta Center
12:04PM 35.4356 -82.2061 233° Southwest 177 204 12,100  Level Atlanta Center
12:05PM 35.4028 -82.2500 228° Southwest 177 204 12,100  Level Atlanta Center
12:06PM 35.3700 -82.2992 231° Southwest 177 204 12,100  Level Atlanta Center
12:07PM 35.3394 -82.3483 233° Southwest 177 204 12,100  Level Atlanta Center
12:08PM 35.3108 -82.3919 231° Southwest 177 204 12,100  Level Atlanta Center
12:09PM 35.2822 -82.4358 231° Southwest 177 204 12,100  Level Atlanta Center
12:10PM 35.2494 -82.4797 228° Southwest 182 209 12,100  Level Atlanta Center
12:11PM 35.2208 -82.5261 233° Southwest 182 209 12,100  Level Atlanta Center
12:12PM 35.1900 -82.5722 231° Southwest 182 209 12,100  Level Atlanta Center
12:13PM 35.1572 -82.6161 228° Southwest 182 209 12,100  Level Atlanta Center
12:14PM 35.1200 -82.6522 218° Southwest 177 204 12,100  Level Atlanta Center
12:15PM 35.0786 -82.6836 212° Southwest 182 209 12,100  Level Atlanta Center
12:16PM 35.0414 -82.7197 218° Southwest 177 204 12,100  Level Atlanta Center
12:17PM 35.0022 -82.7531 215° Southwest 177 204 12,100  Level Atlanta Center
12:18PM 34.9608 -82.7894 216° Southwest 177 204 12,100 -360 Level Atlanta Center
12:19PM 34.9194 -82.8253 215° Southwest 177 204 11,400 -540 Descending Atlanta Center
12:20PM 34.8822 -82.8614 219° Southwest 177 204 11,100 -300 Descending Atlanta Center
12:21PM 34.8408 -82.8922 211° Southwest 177 204 10,900 -60 Descending Atlanta Center
12:22PM 34.8078 -82.9333 226° Southwest 172 198 11,000  Climbing Atlanta Center
12:23PM 34.7789 -82.9817 234° Southwest 172 198 10,900 -60 Descending Atlanta Center
12:24PM 34.7458 -83.0225 225° Southwest 178 205 10,900 -180 Level Atlanta Center
12:25PM 34.7169 -83.0683 233° Southwest 178 205 10,600 -300 Descending Atlanta Center
12:26PM 34.6903 -83.1042 228° Southwest 178 205 10,300 -420 Descending Atlanta Center
12:27PM 34.6592 -83.1472 229° Southwest 173 199 9,800 -600 Descending Atlanta Center
12:28PM 34.6283 -83.1881 227° Southwest 173 199 9,200 -300 Descending Atlanta Center
12:29PM 34.5822 -83.1911 183° South 173 199 9,200 -540 Level Atlanta Center
12:31PM 34.4906 -83.1894 179° South 169 194 7,700 -600 Descending Atlanta Center
12:32PM 34.4636 -83.2375 236° Southwest 151 174 7,400 -360 Descending Atlanta Center
12:33PM 34.4369 -83.2831 235° Southwest 156 180 7,000 -420 Descending Atlanta Center
12:34PM 34.4142 -83.3261 237° Southwest 161 185 6,600 -420 Descending Atlanta Center
12:35PM 34.3894 -83.3667 234° Southwest 161 185 6,200 -300 Descending Atlanta Center
12:36PM 34.3667 -83.4172 241° Southwest 161 185 6,000 -120 Descending Atlanta Center
12:37PM 34.3375 -83.4603 231° Southwest 162 186 6,000  Level Atlanta Center
12:38PM 34.3128 -83.5031 235° Southwest 167 192 6,100  Climbing Atlanta Center
12:39PM 34.2858 -83.5486 234° Southwest 167 192 6,100  Level Atlanta Center
12:40PM 34.2589 -83.5914 233° Southwest 167 192 6,100  Level Atlanta Center
12:41PM 34.2381 -83.6392 242° Southwest 167 192 6,100  Level Atlanta Center
12:42PM 34.2111 -83.6822 233° Southwest 167 192 6,100 -60 Level Atlanta Center
12:43PM 34.1833 -83.7500 244° Southwest 157 181 6,000 -60 Descending Atlanta TRACON
12:44PM 34.1667 -83.7833 239° Southwest 157 181 6,000  Level Atlanta TRACON
12:45PM 34.1333 -83.8500 239° Southwest 158 182 6,000  Level Atlanta TRACON
12:46PM 34.1167 -83.8833 239° Southwest 161 185 6,000 -240 Level Atlanta TRACON
12:47PM 34.1000 -83.9333 248° West 155 178 5,600 -480 Descending Atlanta TRACON
12:48PM 34.0833 -83.9833 248° West 155 178 5,100 -540 Descending Atlanta TRACON
12:49PM 34.0667 -84.0333 248° West 152 175 4,600 -600 Descending Atlanta TRACON
12:50PM 34.0500 -84.0833 248° West 155 178 3,900 -480 Descending Atlanta TRACON
12:51PM 34.0333 -84.1167 239° Southwest 154 177 3,700 -420 Descending Atlanta TRACON
12:52PM 34.0167 -84.1667 248° West 161 185 3,200 -360 Descending Atlanta TRACON
12:53PM 33.9833 -84.2167 231° Southwest 156 180 3,100 -240 Descending Atlanta TRACON
12:54PM 33.9667 -84.2500 239° Southwest 143 165 2,800 -480 Descending Atlanta TRACON
12:55PM 33.9500 -84.2667 220° Southwest 104 120 2,200 -600 Descending Atlanta TRACON
12:56PM 33.9167 -84.2833 203° Southwest 102 117 1,600 -540 Descending Atlanta TRACON
12:57PM 33.8833 -84.3000 203° Southwest 93 107 1,200 -480 Descending Atlanta TRACON
12:59PM 33.8756 -84.3020 239° Southwest  Level Estimated
01:06PM 33.8756 -84.3020 239° Southwest  Level Estimated
01:07PM 33.8756 -84.3020 239° Southwest  Level Estimated
01:08PM 33.8756 -84.3020 239° Southwest  Level Estimated
01:09PM 33.8756 -84.3020 239° Southwest  Level Estimated